GSVT2: Red River, Gainesville, TX

Data processed at Wed May 22 2019 23:50


All information presented herein is the property of the government of the United States of America and may be revised or deleted at any time without prior notice.
Dissemination of this information without the expressed written consent of the Public Affairs Office, Tulsa District U.S. Army Corps of Engineers is strictly prohibited.
These data are gathered electronically and, as presented, have not undergone any form of quality control. These data are not guaranteed to be valid or correct.
Go to home page.
Go to station list.
Go to home page.

Upstream stations:

Downstream station:
Previous Day
Next Day
Current Day
    
SHEF ID:       GSVT2     Red River near Gainesville, TX
STATION TYPE:  
Regulating: Stage =    25.00, Flow =    32766

               PRECIP     STAGE  RIV-FLOW  BAT-LOAD
                   in        ft       cfs      volt
              Ccp-Rev   Ccp-Rev   Ccp-Rev   Ccp-Rev
(US/Central)
05/22 00:00      0.00     15.24     19003     12.57
05/22 01:00      0.00     15.18     18810     12.57
05/22 02:00      0.00     15.12     18618     12.57
05/22 03:00      0.00     15.08     18490     12.57
05/22 04:00      0.00     15.03     18330     12.57
05/22 05:00      0.00     14.97     18139     12.57
05/22 06:00      0.00     14.92     17980     12.49
05/22 07:00      0.00     14.91     17948     12.49
05/22 08:00      0.00     14.87     17821     12.65
05/22 09:00      0.00     14.80     17599     13.13
05/22 10:00      0.00     14.78     17536     13.37
05/22 11:00      0.00     14.73     17378     13.37
05/22 12:00      0.00     14.69     17252     13.44
05/22 13:00      0.00     14.71     17315     14.08
05/22 14:00      0.00     14.68     17221     13.76
05/22 15:00      0.00     14.68     17221     13.44
05/22 16:00      0.00     14.65     17135     13.29
05/22 17:00      0.00     14.73     17378     13.13
05/22 18:00      0.00     14.99     18202     13.13
05/22 19:00      0.00     15.69     20467     13.13
05/22 20:00      0.00     16.75     22612     12.97
05/22 21:00      0.00     17.63     23531     12.73
05/22 22:00      0.00     18.15     24078     12.65
05/22 23:00      0.00     18.47     24417     12.57